sensor_id;sensor_type;location;lat;lon;timestamp;P1;durP1;ratioP1;P2;durP2;ratioP2
57249;SDS011;43102;52.014;-0.680;2022-11-15T00:00:00;6.50;;;3.30;;
57249;SDS011;43102;52.014;-0.680;2022-11-15T00:01:00;6.50;;;3.30;;
57249;SDS011;43102;52.014;-0.680;2022-11-15T00:02:00;6.50;;;3.30;;
57249;SDS011;43102;52.014;-0.680;2022-11-15T00:03:00;6.50;;;3.30;;
57249;SDS011;43102;52.014;-0.680;2022-11-15T00:04:00;6.50;;;3.30;;
57249;SDS011;43102;52.014;-0.680;2022-11-15T00:05:00;6.50;;;3.30;;
57249;SDS011;43102;52.014;-0.680;2022-11-15T00:06:03;8.90;;;3.60;;
57249;SDS011;43102;52.014;-0.680;2022-11-15T00:07:00;8.90;;;3.60;;
57249;SDS011;43102;52.014;-0.680;2022-11-15T00:08:00;8.90;;;3.60;;
57249;SDS011;43102;52.014;-0.680;2022-11-15T00:09:00;8.90;;;3.60;;
57249;SDS011;43102;52.014;-0.680;2022-11-15T00:10:00;8.90;;;3.60;;
57249;SDS011;43102;52.014;-0.680;2022-11-15T00:11:01;8.90;;;3.60;;
57249;SDS011;43102;52.014;-0.680;2022-11-15T00:12:00;8.90;;;3.60;;
57249;SDS011;43102;52.014;-0.680;2022-11-15T00:13:03;8.90;;;3.60;;
57249;SDS011;43102;52.014;-0.680;2022-11-15T00:14:02;8.90;;;3.60;;
57249;SDS011;43102;52.014;-0.680;2022-11-15T00:15:00;8.90;;;3.60;;
57249;SDS011;43102;52.014;-0.680;2022-11-15T00:16:01;8.90;;;3.60;;
57249;SDS011;43102;52.014;-0.680;2022-11-15T00:17:00;8.90;;;3.60;;
57249;SDS011;43102;52.014;-0.680;2022-11-15T00:18:00;8.90;;;3.60;;
57249;SDS011;43102;52.014;-0.680;2022-11-15T00:19:00;8.90;;;3.60;;
57249;SDS011;43102;52.014;-0.680;2022-11-15T00:20:00;8.90;;;3.60;;
57249;SDS011;43102;52.014;-0.680;2022-11-15T00:21:05;8.90;;;3.60;;
57249;SDS011;43102;52.014;-0.680;2022-11-15T00:22:00;8.90;;;3.60;;
57249;SDS011;43102;52.014;-0.680;2022-11-15T00:23:00;8.90;;;3.60;;
57249;SDS011;43102;52.014;-0.680;2022-11-15T00:24:00;8.90;;;3.60;;
57249;SDS011;43102;52.014;-0.680;2022-11-15T00:25:00;8.90;;;3.60;;
57249;SDS011;43102;52.014;-0.680;2022-11-15T00:26:00;8.90;;;3.60;;
57249;SDS011;43102;52.014;-0.680;2022-11-15T00:27:00;8.90;;;3.60;;
57249;SDS011;43102;52.014;-0.680;2022-11-15T00:28:01;8.90;;;3.60;;
57249;SDS011;43102;52.014;-0.680;2022-11-15T00:29:00;8.90;;;3.60;;
57249;SDS011;43102;52.014;-0.680;2022-11-15T00:30:00;8.90;;;3.60;;
57249;SDS011;43102;52.014;-0.680;2022-11-15T00:31:03;8.90;;;3.60;;
57249;SDS011;43102;52.014;-0.680;2022-11-15T00:32:00;8.90;;;3.60;;
57249;SDS011;43102;52.014;-0.680;2022-11-15T00:33:05;8.90;;;3.60;;
57249;SDS011;43102;52.014;-0.680;2022-11-15T00:34:00;8.90;;;3.60;;
57249;SDS011;43102;52.014;-0.680;2022-11-15T00:35:00;8.90;;;3.60;;
57249;SDS011;43102;52.014;-0.680;2022-11-15T00:36:05;4.40;;;2.20;;
57249;SDS011;43102;52.014;-0.680;2022-11-15T00:37:00;4.40;;;2.20;;
57249;SDS011;43102;52.014;-0.680;2022-11-15T00:38:01;4.40;;;2.20;;
57249;SDS011;43102;52.014;-0.680;2022-11-15T00:39:00;4.40;;;2.20;;
57249;SDS011;43102;52.014;-0.680;2022-11-15T00:40:00;4.40;;;2.20;;
57249;SDS011;43102;52.014;-0.680;2022-11-15T00:41:08;4.40;;;2.20;;
57249;SDS011;43102;52.014;-0.680;2022-11-15T00:42:00;4.40;;;2.20;;
57249;SDS011;43102;52.014;-0.680;2022-11-15T00:43:00;4.40;;;2.20;;
57249;SDS011;43102;52.014;-0.680;2022-11-15T00:44:00;4.40;;;2.20;;
57249;SDS011;43102;52.014;-0.680;2022-11-15T00:45:00;4.40;;;2.20;;
57249;SDS011;43102;52.014;-0.680;2022-11-15T00:46:02;4.40;;;2.20;;
57249;SDS011;43102;52.014;-0.680;2022-11-15T00:47:00;4.40;;;2.20;;
57249;SDS011;43102;52.014;-0.680;2022-11-15T00:48:00;4.40;;;2.20;;
57249;SDS011;43102;52.014;-0.680;2022-11-15T00:49:00;4.40;;;2.20;;
57249;SDS011;43102;52.014;-0.680;2022-11-15T00:50:00;4.40;;;2.20;;
57249;SDS011;43102;52.014;-0.680;2022-11-15T00:51:00;4.40;;;2.20;;
57249;SDS011;43102;52.014;-0.680;2022-11-15T00:52:00;4.40;;;2.20;;
57249;SDS011;43102;52.014;-0.680;2022-11-15T00:53:00;4.40;;;2.20;;
57249;SDS011;43102;52.014;-0.680;2022-11-15T00:54:00;4.40;;;2.20;;
57249;SDS011;43102;52.014;-0.680;2022-11-15T00:55:00;4.40;;;2.20;;
57249;SDS011;43102;52.014;-0.680;2022-11-15T00:56:00;4.40;;;2.20;;
57249;SDS011;43102;52.014;-0.680;2022-11-15T00:57:00;4.40;;;2.20;;
57249;SDS011;43102;52.014;-0.680;2022-11-15T00:58:00;4.40;;;2.20;;
57249;SDS011;43102;52.014;-0.680;2022-11-15T00:59:00;4.40;;;2.20;;
57249;SDS011;43102;52.014;-0.680;2022-11-15T01:00:00;4.40;;;2.20;;
57249;SDS011;43102;52.014;-0.680;2022-11-15T01:01:10;4.40;;;2.20;;
57249;SDS011;43102;52.014;-0.680;2022-11-15T01:02:01;4.40;;;2.20;;
57249;SDS011;43102;52.014;-0.680;2022-11-15T01:03:01;4.40;;;2.20;;
57249;SDS011;43102;52.014;-0.680;2022-11-15T01:04:01;4.40;;;2.20;;
57249;SDS011;43102;52.014;-0.680;2022-11-15T01:05:00;4.40;;;2.20;;
57249;SDS011;43102;52.014;-0.680;2022-11-15T01:06:00;3.70;;;2.00;;
57249;SDS011;43102;52.014;-0.680;2022-11-15T01:07:00;3.70;;;2.00;;
57249;SDS011;43102;52.014;-0.680;2022-11-15T01:08:00;3.70;;;2.00;;
57249;SDS011;43102;52.014;-0.680;2022-11-15T01:09:00;3.70;;;2.00;;
57249;SDS011;43102;52.014;-0.680;2022-11-15T01:10:00;3.70;;;2.00;;
57249;SDS011;43102;52.014;-0.680;2022-11-15T01:11:02;3.70;;;2.00;;
57249;SDS011;43102;52.014;-0.680;2022-11-15T01:12:00;3.70;;;2.00;;
57249;SDS011;43102;52.014;-0.680;2022-11-15T01:13:00;3.70;;;2.00;;
57249;SDS011;43102;52.014;-0.680;2022-11-15T01:14:00;3.70;;;2.00;;
57249;SDS011;43102;52.014;-0.680;2022-11-15T01:15:00;3.70;;;2.00;;
57249;SDS011;43102;52.014;-0.680;2022-11-15T01:16:06;3.70;;;2.00;;
57249;SDS011;43102;52.014;-0.680;2022-11-15T01:17:00;3.70;;;2.00;;
57249;SDS011;43102;52.014;-0.680;2022-11-15T01:18:00;3.70;;;2.00;;
57249;SDS011;43102;52.014;-0.680;2022-11-15T01:19:00;3.70;;;2.00;;
57249;SDS011;43102;52.014;-0.680;2022-11-15T01:20:00;3.70;;;2.00;;
57249;SDS011;43102;52.014;-0.680;2022-11-15T01:21:06;3.70;;;2.00;;
57249;SDS011;43102;52.014;-0.680;2022-11-15T01:22:00;3.70;;;2.00;;
57249;SDS011;43102;52.014;-0.680;2022-11-15T01:23:00;3.70;;;2.00;;
57249;SDS011;43102;52.014;-0.680;2022-11-15T01:24:00;3.70;;;2.00;;
57249;SDS011;43102;52.014;-0.680;2022-11-15T01:25:00;3.70;;;2.00;;
57249;SDS011;43102;52.014;-0.680;2022-11-15T01:26:02;3.70;;;2.00;;
57249;SDS011;43102;52.014;-0.680;2022-11-15T01:27:00;3.70;;;2.00;;
57249;SDS011;43102;52.014;-0.680;2022-11-15T01:28:00;3.70;;;2.00;;
57249;SDS011;43102;52.014;-0.680;2022-11-15T01:29:00;3.70;;;2.00;;
57249;SDS011;43102;52.014;-0.680;2022-11-15T01:30:00;3.70;;;2.00;;
57249;SDS011;43102;52.014;-0.680;2022-11-15T01:31:06;3.70;;;2.00;;
57249;SDS011;43102;52.014;-0.680;2022-11-15T01:32:00;3.70;;;2.00;;
57249;SDS011;43102;52.014;-0.680;2022-11-15T01:33:00;3.70;;;2.00;;
57249;SDS011;43102;52.014;-0.680;2022-11-15T01:34:00;3.70;;;2.00;;
57249;SDS011;43102;52.014;-0.680;2022-11-15T01:35:00;3.70;;;2.00;;
57249;SDS011;43102;52.014;-0.680;2022-11-15T01:36:03;5.70;;;2.70;;
57249;SDS011;43102;52.014;-0.680;2022-11-15T01:37:00;5.70;;;2.70;;
57249;SDS011;43102;52.014;-0.680;2022-11-15T01:38:00;5.70;;;2.70;;
57249;SDS011;43102;52.014;-0.680;2022-11-15T01:39:00;5.70;;;2.70;;
57249;SDS011;43102;52.014;-0.680;2022-11-15T01:40:00;5.70;;;2.70;;
57249;SDS011;43102;52.014;-0.680;2022-11-15T01:41:00;5.70;;;2.70;;
57249;SDS011;43102;52.014;-0.680;2022-11-15T01:42:00;5.70;;;2.70;;
57249;SDS011;43102;52.014;-0.680;2022-11-15T01:43:27;5.70;;;2.70;;
57249;SDS011;43102;52.014;-0.680;2022-11-15T01:44:42;5.70;;;2.70;;
57249;SDS011;43102;52.014;-0.680;2022-11-15T01:45:00;5.70;;;2.70;;
57249;SDS011;43102;52.014;-0.680;2022-11-15T01:46:21;5.70;;;2.70;;
57249;SDS011;43102;52.014;-0.680;2022-11-15T01:47:05;5.70;;;2.70;;
57249;SDS011;43102;52.014;-0.680;2022-11-15T01:48:00;5.70;;;2.70;;
57249;SDS011;43102;52.014;-0.680;2022-11-15T01:49:05;5.70;;;2.70;;
57249;SDS011;43102;52.014;-0.680;2022-11-15T01:50:05;5.70;;;2.70;;
57249;SDS011;43102;52.014;-0.680;2022-11-15T01:51:05;5.70;;;2.70;;
57249;SDS011;43102;52.014;-0.680;2022-11-15T01:52:03;5.70;;;2.70;;
57249;SDS011;43102;52.014;-0.680;2022-11-15T01:53:00;5.70;;;2.70;;
57249;SDS011;43102;52.014;-0.680;2022-11-15T01:54:03;5.70;;;2.70;;
57249;SDS011;43102;52.014;-0.680;2022-11-15T01:55:06;5.70;;;2.70;;
57249;SDS011;43102;52.014;-0.680;2022-11-15T01:56:03;5.70;;;2.70;;
57249;SDS011;43102;52.014;-0.680;2022-11-15T01:57:05;5.70;;;2.70;;
57249;SDS011;43102;52.014;-0.680;2022-11-15T01:58:02;5.70;;;2.70;;
57249;SDS011;43102;52.014;-0.680;2022-11-15T01:59:03;5.70;;;2.70;;
57249;SDS011;43102;52.014;-0.680;2022-11-15T02:00:02;5.70;;;2.70;;
57249;SDS011;43102;52.014;-0.680;2022-11-15T02:01:00;5.70;;;2.70;;
57249;SDS011;43102;52.014;-0.680;2022-11-15T02:02:00;5.70;;;2.70;;
57249;SDS011;43102;52.014;-0.680;2022-11-15T02:03:01;5.70;;;2.70;;
57249;SDS011;43102;52.014;-0.680;2022-11-15T02:04:03;5.70;;;2.70;;
57249;SDS011;43102;52.014;-0.680;2022-11-15T02:05:00;5.70;;;2.70;;
57249;SDS011;43102;52.014;-0.680;2022-11-15T02:06:00;5.40;;;2.40;;
57249;SDS011;43102;52.014;-0.680;2022-11-15T02:07:02;5.40;;;2.40;;
57249;SDS011;43102;52.014;-0.680;2022-11-15T02:08:00;5.40;;;2.40;;
57249;SDS011;43102;52.014;-0.680;2022-11-15T02:09:00;5.40;;;2.40;;
57249;SDS011;43102;52.014;-0.680;2022-11-15T02:10:09;5.40;;;2.40;;
57249;SDS011;43102;52.014;-0.680;2022-11-15T02:11:00;5.40;;;2.40;;
57249;SDS011;43102;52.014;-0.680;2022-11-15T02:12:00;5.40;;;2.40;;
57249;SDS011;43102;52.014;-0.680;2022-11-15T02:13:01;5.40;;;2.40;;
57249;SDS011;43102;52.014;-0.680;2022-11-15T02:14:01;5.40;;;2.40;;
57249;SDS011;43102;52.014;-0.680;2022-11-15T02:15:00;5.40;;;2.40;;
57249;SDS011;43102;52.014;-0.680;2022-11-15T02:21:10;5.40;;;2.40;;
57249;SDS011;43102;52.014;-0.680;2022-11-15T02:23:15;5.40;;;2.40;;
57249;SDS011;43102;52.014;-0.680;2022-11-15T02:28:15;5.40;;;2.40;;
57249;SDS011;43102;52.014;-0.680;2022-11-15T02:30:28;5.40;;;2.40;;
57249;SDS011;43102;52.014;-0.680;2022-11-15T02:31:05;5.40;;;2.40;;
57249;SDS011;43102;52.014;-0.680;2022-11-15T02:32:07;5.40;;;2.40;;
57249;SDS011;43102;52.014;-0.680;2022-11-15T02:33:09;5.40;;;2.40;;
57249;SDS011;43102;52.014;-0.680;2022-11-15T02:36:05;6.50;;;3.20;;
57249;SDS011;43102;52.014;-0.680;2022-11-15T02:38:10;6.50;;;3.20;;
57249;SDS011;43102;52.014;-0.680;2022-11-15T02:39:11;6.50;;;3.20;;
57249;SDS011;43102;52.014;-0.680;2022-11-15T02:42:02;6.50;;;3.20;;
57249;SDS011;43102;52.014;-0.680;2022-11-15T02:43:21;6.50;;;3.20;;
57249;SDS011;43102;52.014;-0.680;2022-11-15T02:44:06;6.50;;;3.20;;
57249;SDS011;43102;52.014;-0.680;2022-11-15T02:45:05;6.50;;;3.20;;
57249;SDS011;43102;52.014;-0.680;2022-11-15T02:46:07;6.50;;;3.20;;
57249;SDS011;43102;52.014;-0.680;2022-11-15T02:47:13;6.50;;;3.20;;
57249;SDS011;43102;52.014;-0.680;2022-11-15T02:48:01;6.50;;;3.20;;
57249;SDS011;43102;52.014;-0.680;2022-11-15T02:49:00;6.50;;;3.20;;
57249;SDS011;43102;52.014;-0.680;2022-11-15T02:50:06;6.50;;;3.20;;
57249;SDS011;43102;52.014;-0.680;2022-11-15T02:51:01;6.50;;;3.20;;
57249;SDS011;43102;52.014;-0.680;2022-11-15T02:52:00;6.50;;;3.20;;
57249;SDS011;43102;52.014;-0.680;2022-11-15T02:53:00;6.50;;;3.20;;
57249;SDS011;43102;52.014;-0.680;2022-11-15T02:54:00;6.50;;;3.20;;
57249;SDS011;43102;52.014;-0.680;2022-11-15T02:55:01;6.50;;;3.20;;
57249;SDS011;43102;52.014;-0.680;2022-11-15T02:56:00;6.50;;;3.20;;
57249;SDS011;43102;52.014;-0.680;2022-11-15T02:57:04;6.50;;;3.20;;
57249;SDS011;43102;52.014;-0.680;2022-11-15T03:00:04;6.50;;;3.20;;
57249;SDS011;43102;52.014;-0.680;2022-11-15T03:01:08;6.50;;;3.20;;
57249;SDS011;43102;52.014;-0.680;2022-11-15T03:04:15;6.50;;;3.20;;
57249;SDS011;43102;52.014;-0.680;2022-11-15T03:05:04;6.50;;;3.20;;
57249;SDS011;43102;52.014;-0.680;2022-11-15T03:06:09;7.60;;;2.60;;
57249;SDS011;43102;52.014;-0.680;2022-11-15T03:07:02;7.60;;;2.60;;
57249;SDS011;43102;52.014;-0.680;2022-11-15T03:08:14;7.60;;;2.60;;
57249;SDS011;43102;52.014;-0.680;2022-11-15T03:11:10;7.60;;;2.60;;
57249;SDS011;43102;52.014;-0.680;2022-11-15T03:12:07;7.60;;;2.60;;
57249;SDS011;43102;52.014;-0.680;2022-11-15T03:14:14;7.60;;;2.60;;
57249;SDS011;43102;52.014;-0.680;2022-11-15T03:15:05;7.60;;;2.60;;
57249;SDS011;43102;52.014;-0.680;2022-11-15T03:16:07;7.60;;;2.60;;
57249;SDS011;43102;52.014;-0.680;2022-11-15T03:18:06;7.60;;;2.60;;
57249;SDS011;43102;52.014;-0.680;2022-11-15T03:20:04;7.60;;;2.60;;
57249;SDS011;43102;52.014;-0.680;2022-11-15T03:21:03;7.60;;;2.60;;
57249;SDS011;43102;52.014;-0.680;2022-11-15T03:22:03;7.60;;;2.60;;
57249;SDS011;43102;52.014;-0.680;2022-11-15T03:23:04;7.60;;;2.60;;
57249;SDS011;43102;52.014;-0.680;2022-11-15T03:24:04;7.60;;;2.60;;
57249;SDS011;43102;52.014;-0.680;2022-11-15T03:25:04;7.60;;;2.60;;
57249;SDS011;43102;52.014;-0.680;2022-11-15T03:26:01;7.60;;;2.60;;
57249;SDS011;43102;52.014;-0.680;2022-11-15T03:27:01;7.60;;;2.60;;
57249;SDS011;43102;52.014;-0.680;2022-11-15T03:28:04;7.60;;;2.60;;
57249;SDS011;43102;52.014;-0.680;2022-11-15T03:29:06;7.60;;;2.60;;
57249;SDS011;43102;52.014;-0.680;2022-11-15T03:30:04;7.60;;;2.60;;
57249;SDS011;43102;52.014;-0.680;2022-11-15T03:31:12;7.60;;;2.60;;
57249;SDS011;43102;52.014;-0.680;2022-11-15T03:32:05;7.60;;;2.60;;
57249;SDS011;43102;52.014;-0.680;2022-11-15T03:33:02;7.60;;;2.60;;
57249;SDS011;43102;52.014;-0.680;2022-11-15T03:34:04;7.60;;;2.60;;
57249;SDS011;43102;52.014;-0.680;2022-11-15T03:35:01;7.60;;;2.60;;
57249;SDS011;43102;52.014;-0.680;2022-11-15T03:36:00;7.20;;;2.80;;
57249;SDS011;43102;52.014;-0.680;2022-11-15T03:37:01;7.20;;;2.80;;
57249;SDS011;43102;52.014;-0.680;2022-11-15T03:38:06;7.20;;;2.80;;
57249;SDS011;43102;52.014;-0.680;2022-11-15T03:39:04;7.20;;;2.80;;
57249;SDS011;43102;52.014;-0.680;2022-11-15T03:40:01;7.20;;;2.80;;
57249;SDS011;43102;52.014;-0.680;2022-11-15T03:41:05;7.20;;;2.80;;
57249;SDS011;43102;52.014;-0.680;2022-11-15T03:43:04;7.20;;;2.80;;
57249;SDS011;43102;52.014;-0.680;2022-11-15T03:44:07;7.20;;;2.80;;
57249;SDS011;43102;52.014;-0.680;2022-11-15T03:46:05;7.20;;;2.80;;
57249;SDS011;43102;52.014;-0.680;2022-11-15T03:47:25;7.20;;;2.80;;
57249;SDS011;43102;52.014;-0.680;2022-11-15T03:48:12;7.20;;;2.80;;
57249;SDS011;43102;52.014;-0.680;2022-11-15T03:49:08;7.20;;;2.80;;
57249;SDS011;43102;52.014;-0.680;2022-11-15T03:50:07;7.20;;;2.80;;
57249;SDS011;43102;52.014;-0.680;2022-11-15T03:51:01;7.20;;;2.80;;
57249;SDS011;43102;52.014;-0.680;2022-11-15T03:52:02;7.20;;;2.80;;
57249;SDS011;43102;52.014;-0.680;2022-11-15T03:53:00;7.20;;;2.80;;
57249;SDS011;43102;52.014;-0.680;2022-11-15T03:54:03;7.20;;;2.80;;
57249;SDS011;43102;52.014;-0.680;2022-11-15T03:55:02;7.20;;;2.80;;
57249;SDS011;43102;52.014;-0.680;2022-11-15T03:56:00;7.20;;;2.80;;
57249;SDS011;43102;52.014;-0.680;2022-11-15T03:57:00;7.20;;;2.80;;
57249;SDS011;43102;52.014;-0.680;2022-11-15T03:58:01;7.20;;;2.80;;
57249;SDS011;43102;52.014;-0.680;2022-11-15T03:59:00;7.20;;;2.80;;
57249;SDS011;43102;52.014;-0.680;2022-11-15T04:00:00;7.20;;;2.80;;
57249;SDS011;43102;52.014;-0.680;2022-11-15T04:01:00;7.20;;;2.80;;
57249;SDS011;43102;52.014;-0.680;2022-11-15T04:02:00;7.20;;;2.80;;
57249;SDS011;43102;52.014;-0.680;2022-11-15T04:03:00;7.20;;;2.80;;
57249;SDS011;43102;52.014;-0.680;2022-11-15T04:04:00;7.20;;;2.80;;
57249;SDS011;43102;52.014;-0.680;2022-11-15T04:05:00;7.20;;;2.80;;
57249;SDS011;43102;52.014;-0.680;2022-11-15T04:06:00;10.60;;;3.60;;
57249;SDS011;43102;52.014;-0.680;2022-11-15T04:07:00;10.60;;;3.60;;
57249;SDS011;43102;52.014;-0.680;2022-11-15T04:08:00;10.60;;;3.60;;
57249;SDS011;43102;52.014;-0.680;2022-11-15T04:09:00;10.60;;;3.60;;
57249;SDS011;43102;52.014;-0.680;2022-11-15T04:10:04;10.60;;;3.60;;
57249;SDS011;43102;52.014;-0.680;2022-11-15T04:11:02;10.60;;;3.60;;
57249;SDS011;43102;52.014;-0.680;2022-11-15T04:12:00;10.60;;;3.60;;
57249;SDS011;43102;52.014;-0.680;2022-11-15T04:13:04;10.60;;;3.60;;
57249;SDS011;43102;52.014;-0.680;2022-11-15T04:14:00;10.60;;;3.60;;
57249;SDS011;43102;52.014;-0.680;2022-11-15T04:15:10;10.60;;;3.60;;
57249;SDS011;43102;52.014;-0.680;2022-11-15T04:16:00;10.60;;;3.60;;
57249;SDS011;43102;52.014;-0.680;2022-11-15T04:17:00;10.60;;;3.60;;
57249;SDS011;43102;52.014;-0.680;2022-11-15T04:18:00;10.60;;;3.60;;
57249;SDS011;43102;52.014;-0.680;2022-11-15T04:19:10;10.60;;;3.60;;
57249;SDS011;43102;52.014;-0.680;2022-11-15T04:21:10;10.60;;;3.60;;
57249;SDS011;43102;52.014;-0.680;2022-11-15T04:22:10;10.60;;;3.60;;
57249;SDS011;43102;52.014;-0.680;2022-11-15T04:23:12;10.60;;;3.60;;
57249;SDS011;43102;52.014;-0.680;2022-11-15T04:24:10;10.60;;;3.60;;
57249;SDS011;43102;52.014;-0.680;2022-11-15T04:25:00;10.60;;;3.60;;
57249;SDS011;43102;52.014;-0.680;2022-11-15T04:26:04;10.60;;;3.60;;
57249;SDS011;43102;52.014;-0.680;2022-11-15T04:27:00;10.60;;;3.60;;
57249;SDS011;43102;52.014;-0.680;2022-11-15T04:28:00;10.60;;;3.60;;
57249;SDS011;43102;52.014;-0.680;2022-11-15T04:29:10;10.60;;;3.60;;
57249;SDS011;43102;52.014;-0.680;2022-11-15T04:30:00;10.60;;;3.60;;
57249;SDS011;43102;52.014;-0.680;2022-11-15T04:31:00;10.60;;;3.60;;
57249;SDS011;43102;52.014;-0.680;2022-11-15T04:32:03;10.60;;;3.60;;
57249;SDS011;43102;52.014;-0.680;2022-11-15T04:33:00;10.60;;;3.60;;
57249;SDS011;43102;52.014;-0.680;2022-11-15T04:34:01;10.60;;;3.60;;
57249;SDS011;43102;52.014;-0.680;2022-11-15T04:35:00;10.60;;;3.60;;
57249;SDS011;43102;52.014;-0.680;2022-11-15T04:36:10;9.70;;;2.60;;
57249;SDS011;43102;52.014;-0.680;2022-11-15T04:37:10;9.70;;;2.60;;
57249;SDS011;43102;52.014;-0.680;2022-11-15T04:38:01;9.70;;;2.60;;
57249;SDS011;43102;52.014;-0.680;2022-11-15T04:39:00;9.70;;;2.60;;
57249;SDS011;43102;52.014;-0.680;2022-11-15T04:40:00;9.70;;;2.60;;
57249;SDS011;43102;52.014;-0.680;2022-11-15T04:41:00;9.70;;;2.60;;
57249;SDS011;43102;52.014;-0.680;2022-11-15T04:42:00;9.70;;;2.60;;
57249;SDS011;43102;52.014;-0.680;2022-11-15T04:43:04;9.70;;;2.60;;
57249;SDS011;43102;52.014;-0.680;2022-11-15T04:44:00;9.70;;;2.60;;
57249;SDS011;43102;52.014;-0.680;2022-11-15T04:45:00;9.70;;;2.60;;
57249;SDS011;43102;52.014;-0.680;2022-11-15T04:46:00;9.70;;;2.60;;
57249;SDS011;43102;52.014;-0.680;2022-11-15T04:47:01;9.70;;;2.60;;
57249;SDS011;43102;52.014;-0.680;2022-11-15T04:48:00;9.70;;;2.60;;
57249;SDS011;43102;52.014;-0.680;2022-11-15T04:49:00;9.70;;;2.60;;
57249;SDS011;43102;52.014;-0.680;2022-11-15T04:50:00;9.70;;;2.60;;
57249;SDS011;43102;52.014;-0.680;2022-11-15T04:51:00;9.70;;;2.60;;
57249;SDS011;43102;52.014;-0.680;2022-11-15T04:52:00;9.70;;;2.60;;
57249;SDS011;43102;52.014;-0.680;2022-11-15T04:53:00;9.70;;;2.60;;
57249;SDS011;43102;52.014;-0.680;2022-11-15T04:54:00;9.70;;;2.60;;
57249;SDS011;43102;52.014;-0.680;2022-11-15T04:55:07;9.70;;;2.60;;
57249;SDS011;43102;52.014;-0.680;2022-11-15T04:56:00;9.70;;;2.60;;
57249;SDS011;43102;52.014;-0.680;2022-11-15T04:57:00;9.70;;;2.60;;
57249;SDS011;43102;52.014;-0.680;2022-11-15T04:58:01;9.70;;;2.60;;
57249;SDS011;43102;52.014;-0.680;2022-11-15T04:59:00;9.70;;;2.60;;
57249;SDS011;43102;52.014;-0.680;2022-11-15T05:00:00;9.70;;;2.60;;
57249;SDS011;43102;52.014;-0.680;2022-11-15T05:01:08;9.70;;;2.60;;
57249;SDS011;43102;52.014;-0.680;2022-11-15T05:02:00;9.70;;;2.60;;
57249;SDS011;43102;52.014;-0.680;2022-11-15T05:03:10;9.70;;;2.60;;
57249;SDS011;43102;52.014;-0.680;2022-11-15T05:04:10;9.70;;;2.60;;
57249;SDS011;43102;52.014;-0.680;2022-11-15T05:05:00;9.70;;;2.60;;
57249;SDS011;43102;52.014;-0.680;2022-11-15T05:06:00;8.60;;;2.80;;
57249;SDS011;43102;52.014;-0.680;2022-11-15T05:07:00;8.60;;;2.80;;
57249;SDS011;43102;52.014;-0.680;2022-11-15T05:08:00;8.60;;;2.80;;
57249;SDS011;43102;52.014;-0.680;2022-11-15T05:09:00;8.60;;;2.80;;
57249;SDS011;43102;52.014;-0.680;2022-11-15T05:10:00;8.60;;;2.80;;
57249;SDS011;43102;52.014;-0.680;2022-11-15T05:11:00;8.60;;;2.80;;
57249;SDS011;43102;52.014;-0.680;2022-11-15T05:12:00;8.60;;;2.80;;
57249;SDS011;43102;52.014;-0.680;2022-11-15T05:13:00;8.60;;;2.80;;
57249;SDS011;43102;52.014;-0.680;2022-11-15T05:14:00;8.60;;;2.80;;
57249;SDS011;43102;52.014;-0.680;2022-11-15T05:15:00;8.60;;;2.80;;
57249;SDS011;43102;52.014;-0.680;2022-11-15T05:16:00;8.60;;;2.80;;
57249;SDS011;43102;52.014;-0.680;2022-11-15T05:17:00;8.60;;;2.80;;
57249;SDS011;43102;52.014;-0.680;2022-11-15T05:18:00;8.60;;;2.80;;
57249;SDS011;43102;52.014;-0.680;2022-11-15T05:19:00;8.60;;;2.80;;
57249;SDS011;43102;52.014;-0.680;2022-11-15T05:20:00;8.60;;;2.80;;
57249;SDS011;43102;52.014;-0.680;2022-11-15T05:21:11;8.60;;;2.80;;
57249;SDS011;43102;52.014;-0.680;2022-11-15T05:22:00;8.60;;;2.80;;
57249;SDS011;43102;52.014;-0.680;2022-11-15T05:23:00;8.60;;;2.80;;
57249;SDS011;43102;52.014;-0.680;2022-11-15T05:24:00;8.60;;;2.80;;
57249;SDS011;43102;52.014;-0.680;2022-11-15T05:25:00;8.60;;;2.80;;
57249;SDS011;43102;52.014;-0.680;2022-11-15T05:26:09;8.60;;;2.80;;
57249;SDS011;43102;52.014;-0.680;2022-11-15T05:27:00;8.60;;;2.80;;
57249;SDS011;43102;52.014;-0.680;2022-11-15T05:28:00;8.60;;;2.80;;
57249;SDS011;43102;52.014;-0.680;2022-11-15T05:29:00;8.60;;;2.80;;
57249;SDS011;43102;52.014;-0.680;2022-11-15T05:30:00;8.60;;;2.80;;
57249;SDS011;43102;52.014;-0.680;2022-11-15T05:31:03;8.60;;;2.80;;
57249;SDS011;43102;52.014;-0.680;2022-11-15T05:32:00;8.60;;;2.80;;
57249;SDS011;43102;52.014;-0.680;2022-11-15T05:33:00;8.60;;;2.80;;
57249;SDS011;43102;52.014;-0.680;2022-11-15T05:34:01;8.60;;;2.80;;
57249;SDS011;43102;52.014;-0.680;2022-11-15T05:35:00;8.60;;;2.80;;
57249;SDS011;43102;52.014;-0.680;2022-11-15T05:36:06;9.00;;;2.60;;
57249;SDS011;43102;52.014;-0.680;2022-11-15T05:37:00;9.00;;;2.60;;
57249;SDS011;43102;52.014;-0.680;2022-11-15T05:38:00;9.00;;;2.60;;
57249;SDS011;43102;52.014;-0.680;2022-11-15T05:39:00;9.00;;;2.60;;
57249;SDS011;43102;52.014;-0.680;2022-11-15T05:40:00;9.00;;;2.60;;
57249;SDS011;43102;52.014;-0.680;2022-11-15T05:41:01;9.00;;;2.60;;
57249;SDS011;43102;52.014;-0.680;2022-11-15T05:42:11;9.00;;;2.60;;
57249;SDS011;43102;52.014;-0.680;2022-11-15T05:43:01;9.00;;;2.60;;
57249;SDS011;43102;52.014;-0.680;2022-11-15T05:44:01;9.00;;;2.60;;
57249;SDS011;43102;52.014;-0.680;2022-11-15T05:45:01;9.00;;;2.60;;
57249;SDS011;43102;52.014;-0.680;2022-11-15T05:46:02;9.00;;;2.60;;
57249;SDS011;43102;52.014;-0.680;2022-11-15T05:47:00;9.00;;;2.60;;
57249;SDS011;43102;52.014;-0.680;2022-11-15T05:48:01;9.00;;;2.60;;
57249;SDS011;43102;52.014;-0.680;2022-11-15T05:49:01;9.00;;;2.60;;
57249;SDS011;43102;52.014;-0.680;2022-11-15T05:50:00;9.00;;;2.60;;
57249;SDS011;43102;52.014;-0.680;2022-11-15T05:51:01;9.00;;;2.60;;
57249;SDS011;43102;52.014;-0.680;2022-11-15T05:52:02;9.00;;;2.60;;
57249;SDS011;43102;52.014;-0.680;2022-11-15T05:53:05;9.00;;;2.60;;
57249;SDS011;43102;52.014;-0.680;2022-11-15T05:54:01;9.00;;;2.60;;
57249;SDS011;43102;52.014;-0.680;2022-11-15T05:55:01;9.00;;;2.60;;
57249;SDS011;43102;52.014;-0.680;2022-11-15T05:56:00;9.00;;;2.60;;
57249;SDS011;43102;52.014;-0.680;2022-11-15T05:57:00;9.00;;;2.60;;
57249;SDS011;43102;52.014;-0.680;2022-11-15T05:58:01;9.00;;;2.60;;
57249;SDS011;43102;52.014;-0.680;2022-11-15T05:59:00;9.00;;;2.60;;
57249;SDS011;43102;52.014;-0.680;2022-11-15T06:00:01;9.00;;;2.60;;
57249;SDS011;43102;52.014;-0.680;2022-11-15T06:01:00;9.00;;;2.60;;
57249;SDS011;43102;52.014;-0.680;2022-11-15T06:02:00;9.00;;;2.60;;
57249;SDS011;43102;52.014;-0.680;2022-11-15T06:03:00;9.00;;;2.60;;
57249;SDS011;43102;52.014;-0.680;2022-11-15T06:04:00;9.00;;;2.60;;
57249;SDS011;43102;52.014;-0.680;2022-11-15T06:05:00;9.00;;;2.60;;
57249;SDS011;43102;52.014;-0.680;2022-11-15T06:06:00;8.60;;;2.90;;
57249;SDS011;43102;52.014;-0.680;2022-11-15T06:07:00;8.60;;;2.90;;
57249;SDS011;43102;52.014;-0.680;2022-11-15T06:08:00;8.60;;;2.90;;
57249;SDS011;43102;52.014;-0.680;2022-11-15T06:09:00;8.60;;;2.90;;
57249;SDS011;43102;52.014;-0.680;2022-11-15T06:10:00;8.60;;;2.90;;
57249;SDS011;43102;52.014;-0.680;2022-11-15T06:11:05;8.60;;;2.90;;
57249;SDS011;43102;52.014;-0.680;2022-11-15T06:12:00;8.60;;;2.90;;
57249;SDS011;43102;52.014;-0.680;2022-11-15T06:13:02;8.60;;;2.90;;
57249;SDS011;43102;52.014;-0.680;2022-11-15T06:14:00;8.60;;;2.90;;
57249;SDS011;43102;52.014;-0.680;2022-11-15T06:15:00;8.60;;;2.90;;
57249;SDS011;43102;52.014;-0.680;2022-11-15T06:16:00;8.60;;;2.90;;
57249;SDS011;43102;52.014;-0.680;2022-11-15T06:17:00;8.60;;;2.90;;
57249;SDS011;43102;52.014;-0.680;2022-11-15T06:18:00;8.60;;;2.90;;
57249;SDS011;43102;52.014;-0.680;2022-11-15T06:19:01;8.60;;;2.90;;
57249;SDS011;43102;52.014;-0.680;2022-11-15T06:20:00;8.60;;;2.90;;
57249;SDS011;43102;52.014;-0.680;2022-11-15T06:21:00;8.60;;;2.90;;
57249;SDS011;43102;52.014;-0.680;2022-11-15T06:22:00;8.60;;;2.90;;
57249;SDS011;43102;52.014;-0.680;2022-11-15T06:23:02;8.60;;;2.90;;